Time;durP1;ratioP1;P1;durP2;ratioP2;P2;SDS_P1;SDS_P2;PMS_P1;PMS_P2;Temp;Humidity;BMP_temperature;BMP_pressure;BME280_temperature;BME280_humidity;BME280_pressure;Samples;Min_cycle;Max_cycle;Signal;HPM_P1;HPM_P2
2021/10/04 12:58:31;;;;;;;5.20;3.60;;;;;;;18.17;36.55;101818.64;1798800;79;22719;-70
2021/10/04 13:01:16;;;;;;;5.03;3.47;;;;;;;18.14;35.42;101822.44;1748320;81;21011;-69
2021/10/04 13:03:59;;;;;;;4.97;3.30;;;;;;;18.07;35.88;101824.09;1706437;83;21089;-70
2021/10/04 13:06:29;;;;;;;4.33;3.60;;;;;;;18.05;35.94;101819.49;1710428;81;20891;-71
2021/10/04 13:08:57;;;;;;;5.03;3.20;;;;;;;18.00;36.17;101818.98;1705641;82;20979;-70
2021/10/04 13:11:24;;;;;;;6.17;3.43;;;;;;;17.92;35.48;101819.53;1718569;81;21071;-70
2021/10/04 13:13:52;;;;;;;5.10;3.70;;;;;;;17.82;36.42;101816.86;1699956;81;21573;-70
2021/10/04 13:16:19;;;;;;;5.03;3.77;;;;;;;17.72;36.69;101818.21;1696298;83;21589;-69
2021/10/04 13:18:46;;;;;;;4.27;3.27;;;;;;;17.64;37.21;101813.38;1694309;81;21235;-68
2021/10/04 13:21:13;;;;;;;6.67;3.60;;;;;;;17.57;37.03;101817.17;1693697;84;21066;-70
2021/10/04 13:23:40;;;;;;;4.27;3.37;;;;;;;17.51;37.74;101822.31;1680932;84;21245;-71
2021/10/04 13:26:11;;;;;;;4.63;3.40;;;;;;;17.51;37.85;101822.86;1684255;85;21192;-72
2021/10/04 13:28:37;;;;;;;4.27;3.40;;;;;;;17.56;38.04;101826.34;1652611;84;21164;-71
2021/10/04 13:31:05;;;;;;;6.27;3.57;;;;;;;17.62;38.33;101820.94;1649274;85;21075;-70
2021/10/04 13:33:32;;;;;;;5.80;3.30;;;;;;;17.68;38.18;101817.15;1696324;83;21018;-70
2021/10/04 13:36:01;;;;;;;4.37;3.40;;;;;;;17.78;37.72;101817.16;1673572;84;21146;-70
2021/10/04 13:38:30;;;;;;;5.67;3.40;;;;;;;17.87;36.80;101816.03;1703717;83;21057;-73
2021/10/04 13:40:58;;;;;;;4.73;3.70;;;;;;;17.98;36.80;101819.78;1691522;84;21162;-71
2021/10/04 13:43:26;;;;;;;5.13;3.50;;;;;;;18.07;36.37;101814.62;1687767;83;21054;-71
2021/10/04 13:45:54;;;;;;;6.00;3.50;;;;;;;18.14;36.13;101805.67;1683427;84;21015;-71
2021/10/04 13:48:22;;;;;;;5.23;3.80;;;;;;;18.22;36.10;101809.13;1693502;84;21023;-69
2021/10/04 13:50:51;;;;;;;4.93;3.50;;;;;;;18.31;36.71;101812.08;1689617;82;21087;-71
2021/10/04 13:53:17;;;;;;;3.77;3.23;;;;;;;18.41;36.54;101806.61;1696915;84;21828;-70
2021/10/04 13:55:45;;;;;;;4.67;3.40;;;;;;;18.48;35.65;101798.99;1683722;84;21098;-69
2021/10/04 13:58:11;;;;;;;7.53;3.60;;;;;;;18.50;35.86;101797.38;1673418;84;21031;-72
2021/10/04 14:00:38;;;;;;;5.10;3.67;;;;;;;18.53;35.71;101804.94;1686288;84;21008;-70
2021/10/04 14:03:05;;;;;;;4.63;3.47;;;;;;;18.53;35.77;101800.07;1687209;84;21103;-73
2021/10/04 14:05:32;;;;;;;6.00;3.73;;;;;;;18.49;36.32;101802.50;1670066;84;21125;-70
2021/10/04 14:07:59;;;;;;;5.00;3.93;;;;;;;18.45;36.45;101798.20;1673326;84;21092;-70
2021/10/04 14:10:26;;;;;;;5.40;3.50;;;;;;;18.37;36.60;101798.80;1689891;84;21098;-71
2021/10/04 14:12:53;;;;;;;5.30;4.10;;;;;;;18.27;36.68;101804.27;1681241;84;21082;-71
2021/10/04 14:15:20;;;;;;;7.67;4.00;;;;;;;18.13;37.13;101808.12;1668651;84;21569;-72
2021/10/04 14:17:46;;;;;;;5.37;4.13;;;;;;;18.00;37.96;101809.52;1708404;82;21135;-71
2021/10/04 14:20:15;;;;;;;6.57;4.07;;;;;;;17.87;38.24;101810.11;1726134;82;20988;-71
2021/10/04 14:22:47;;;;;;;7.57;4.60;;;;;;;17.75;38.35;101814.97;1729032;82;21085;-70
2021/10/04 14:25:17;;;;;;;6.10;4.67;;;;;;;17.62;38.61;101810.13;1726494;82;21004;-70
2021/10/04 14:27:44;;;;;;;7.27;4.73;;;;;;;17.53;38.83;101810.67;1712349;82;21831;-71
2021/10/04 14:30:13;;;;;;;6.83;4.57;;;;;;;17.44;38.51;101810.98;1717022;82;21288;-70
2021/10/04 14:32:39;;;;;;;5.67;4.77;;;;;;;17.35;38.80;101813.41;1714361;82;21028;-70
2021/10/04 14:35:09;;;;;;;7.93;4.70;;;;;;;17.30;39.51;101816.65;1721501;82;20996;-72
2021/10/04 14:37:35;;;;;;;10.90;6.80;;;;;;;17.29;39.88;101814.50;1714456;82;21110;-71
2021/10/04 14:40:07;;;;;;;7.20;5.40;;;;;;;17.34;39.85;101813.16;1718590;82;21064;-72
2021/10/04 14:42:36;;;;;;;6.67;5.37;;;;;;;17.47;39.62;101815.84;1719372;82;20997;-72
2021/10/04 14:45:04;;;;;;;6.03;4.97;;;;;;;17.68;39.17;101810.39;1726964;82;21047;-74
2021/10/04 14:47:31;;;;;;;8.97;5.10;;;;;;;17.88;38.48;101811.72;1733232;82;21537;-73
2021/10/04 14:49:57;;;;;;;6.57;4.70;;;;;;;18.12;38.18;101806.48;1720998;82;20952;-73
2021/10/04 14:52:27;;;;;;;6.67;4.77;;;;;;;18.33;37.74;101812.63;1715159;82;21067;-73
2021/10/04 14:54:54;;;;;;;6.50;5.10;;;;;;;18.49;37.29;101809.27;1705426;82;21198;-71
2021/10/04 15:08:40;;;;;;;5.83;4.33;;;;;;;19.12;35.39;101809.96;1807606;78;22222;-70
2021/10/04 15:11:07;;;;;;;8.50;5.00;;;;;;;18.93;35.21;101812.54;1751528;81;21083;-70
2021/10/04 15:13:35;;;;;;;9.20;4.80;;;;;;;18.66;35.50;101812.98;1752468;80;21146;-72
2021/10/04 15:16:01;;;;;;;7.40;4.87;;;;;;;18.36;36.02;101815.29;1761987;80;21536;-71
2021/10/04 15:18:28;;;;;;;7.40;4.90;;;;;;;17.97;36.58;101813.31;1753466;79;21072;-71
2021/10/04 15:20:55;;;;;;;8.00;5.27;;;;;;;17.51;37.00;101813.41;1767711;79;21081;-70
2021/10/04 15:23:22;;;;;;;7.80;4.87;;;;;;;17.05;37.80;101815.59;1767713;79;21112;-70
2021/10/04 15:25:48;;;;;;;8.40;5.63;;;;;;;16.65;38.44;101819.83;1768633;79;21123;-70
2021/10/04 15:28:16;;;;;;;9.20;6.20;;;;;;;16.29;39.18;101818.12;1768502;79;20942;-69
2021/10/04 15:30:43;;;;;;;11.90;7.37;;;;;;;15.96;39.95;101828.22;1770116;81;21014;-69
2021/10/04 15:33:10;;;;;;;18.37;8.87;;;;;;;15.64;40.70;101822.88;1750538;79;22054;-69
2021/10/04 15:35:37;;;;;;;23.03;13.63;;;;;;;15.35;41.24;101827.78;1766662;81;21064;-69
2021/10/04 15:38:04;;;;;;;25.20;13.90;;;;;;;14.75;42.50;101821.61;1765959;79;21137;-69
2021/10/04 15:40:33;;;;;;;22.50;12.30;;;;;;;14.75;42.50;101821.61;1767018;79;21075;-69
2021/10/04 15:43:02;;;;;;;18.60;9.73;;;;;;;14.50;43.36;101826.14;1769409;79;22233;-69
2021/10/04 15:45:30;;;;;;;14.97;8.53;;;;;;;14.21;43.85;101823.66;1766602;79;21785;-70
2021/10/04 15:47:56;;;;;;;11.83;7.53;;;;;;;13.96;44.25;101834.09;1765952;79;21656;-69
2021/10/04 15:50:23;;;;;;;15.20;7.53;;;;;;;13.69;44.87;101833.46;1768697;79;22218;-70
2021/10/04 15:52:50;;;;;;;16.33;8.50;;;;;;;13.46;45.23;101834.45;1769191;79;21583;-69
2021/10/04 15:55:16;;;;;;;14.17;8.00;;;;;;;13.23;46.23;101842.11;1763535;79;21962;-69
2021/10/04 15:57:43;;;;;;;12.53;9.03;;;;;;;13.02;47.08;101842.27;1741328;80;21487;-69
2021/10/04 16:00:11;;;;;;;12.90;8.23;;;;;;;12.80;47.81;101840.83;1739137;80;21286;-69
2021/10/04 16:02:39;;;;;;;14.97;8.93;;;;;;;12.57;48.94;101847.09;1733958;81;21209;-70
2021/10/04 16:05:08;;;;;;;12.27;8.43;;;;;;;12.30;49.81;101851.34;1730466;80;22303;-70
2021/10/04 16:07:39;;;;;;;14.87;10.60;;;;;;;12.05;50.29;101857.80;1723987;81;21290;-70
2021/10/04 16:10:06;;;;;;;17.00;12.77;;;;;;;11.79;51.58;101858.26;1724941;82;21285;-70
2021/10/04 16:12:34;;;;;;;15.57;11.30;;;;;;;11.53;53.98;101864.34;1733897;80;21408;-70
2021/10/04 16:15:01;;;;;;;22.10;13.93;;;;;;;11.27;54.94;101868.25;1745332;80;21257;-70
2021/10/04 16:17:28;;;;;;;18.77;14.97;;;;;;;11.11;55.76;101868.38;1732321;81;21284;-70
2021/10/04 16:19:54;;;;;;;22.50;16.83;;;;;;;10.94;56.22;101864.73;1740723;80;21333;-70
2021/10/04 16:22:21;;;;;;;21.10;17.03;;;;;;;10.81;56.33;101869.73;1731968;81;21297;-71
2021/10/04 16:24:48;;;;;;;24.70;17.90;;;;;;;10.70;56.37;101861.16;1729056;81;21316;-70
2021/10/04 16:27:14;;;;;;;28.07;20.82;;;;;;;10.59;56.49;101865.91;1724549;82;21727;-70
2021/10/04 16:29:41;;;;;;;27.83;20.50;;;;;;;10.51;56.48;101869.19;1730584;80;21057;-70
2021/10/04 16:32:08;;;;;;;25.00;19.87;;;;;;;10.44;56.42;101871.13;1728048;81;21181;-69
2021/10/04 16:34:35;;;;;;;26.27;19.17;;;;;;;10.35;56.74;101863.11;1727577;80;21077;-70
2021/10/04 16:37:02;;;;;;;25.65;19.85;;;;;;;10.28;56.98;101867.72;1731728;80;21056;-71
2021/10/04 16:39:29;;;;;;;29.60;19.67;;;;;;;10.19;57.23;101865.81;1726004;80;21125;-71
2021/10/04 16:41:56;;;;;;;26.73;21.57;;;;;;;10.11;57.28;101870.13;1730923;81;21112;-71
2021/10/04 16:44:22;;;;;;;26.55;20.20;;;;;;;10.02;58.00;101874.93;1728762;80;21093;-71
2021/10/04 16:46:49;;;;;;;28.80;21.52;;;;;;;9.93;58.32;101872.24;1728338;80;21125;-71
2021/10/04 16:49:15;;;;;;;34.75;22.52;;;;;;;9.85;58.85;101882.69;1733749;81;21045;-71
2021/10/04 16:51:42;;;;;;;28.70;21.27;;;;;;;9.76;59.23;101880.00;1735344;81;21133;-71
2021/10/04 16:54:09;;;;;;;27.65;21.07;;;;;;;9.69;59.55;101885.10;1725401;81;21559;-71
2021/10/04 16:56:35;;;;;;;25.75;20.02;;;;;;;9.60;60.13;101885.36;1724344;81;21037;-71
2021/10/04 16:59:02;;;;;;;29.50;21.52;;;;;;;9.52;60.82;101890.98;1731939;81;21102;-71
2021/10/04 17:01:29;;;;;;;27.82;22.13;;;;;;;9.42;61.63;101889.31;1729018;80;21088;-70
2021/10/04 17:03:56;;;;;;;27.90;21.37;;;;;;;9.30;62.13;101895.03;1733288;81;21056;-69
2021/10/04 17:06:25;;;;;;;26.17;20.77;;;;;;;9.21;62.49;101898.98;1732213;80;21053;-70
2021/10/04 17:08:52;;;;;;;26.75;19.42;;;;;;;9.10;62.90;101901.82;1732988;81;21285;-70
2021/10/04 17:11:19;;;;;;;27.90;19.48;;;;;;;8.98;63.08;101900.33;1741384;81;21033;-69
2021/10/04 17:13:45;;;;;;;29.37;18.10;;;;;;;8.88;63.29;101906.64;1743134;81;20954;-70
2021/10/04 17:16:12;;;;;;;25.40;17.65;;;;;;;8.82;63.52;101902.19;1725632;81;21442;-70
2021/10/04 17:18:39;;;;;;;25.27;17.65;;;;;;;8.75;63.67;101909.36;1732243;80;21085;-70
2021/10/04 17:21:07;;;;;;;25.37;17.02;;;;;;;8.68;63.79;101909.39;1738284;80;21044;-70
2021/10/04 17:23:33;;;;;;;24.35;15.98;;;;;;;8.62;63.90;101907.08;1731613;81;21052;-70
2021/10/04 17:26:00;;;;;;;24.05;15.00;;;;;;;8.60;64.08;101910.45;1720329;81;21073;-70
2021/10/04 17:28:26;;;;;;;26.07;15.95;;;;;;;8.57;64.18;101908.73;1721226;81;21084;-70
2021/10/04 17:30:54;;;;;;;22.77;15.45;;;;;;;8.54;64.22;101911.30;1747898;80;21076;-70
2021/10/04 17:33:20;;;;;;;22.90;15.63;;;;;;;8.52;64.32;101917.33;1740717;80;21049;-70
2021/10/04 17:35:47;;;;;;;23.32;15.58;;;;;;;8.51;64.66;101920.22;1733118;81;21052;-70
2021/10/04 17:38:14;;;;;;;25.75;16.05;;;;;;;8.47;64.79;101921.15;1731385;81;21029;-70
2021/10/04 17:40:42;;;;;;;22.77;16.05;;;;;;;8.44;65.06;101918.91;1739798;81;21442;-69
2021/10/04 17:43:11;;;;;;;22.42;15.38;;;;;;;8.42;65.15;101927.60;1734798;80;22474;-70
2021/10/04 17:45:38;;;;;;;21.45;15.10;;;;;;;8.40;65.41;101925.68;1728798;80;21094;-70
2021/10/04 17:48:05;;;;;;;23.15;15.68;;;;;;;8.36;65.73;101931.91;1742334;80;21563;-69
2021/10/04 17:50:32;;;;;;;21.27;14.05;;;;;;;8.38;66.08;101931.72;1739718;81;21056;-71
2021/10/04 17:52:59;;;;;;;19.90;13.32;;;;;;;8.35;66.18;101934.24;1725016;81;21401;-71
2021/10/04 17:55:26;;;;;;;17.65;12.78;;;;;;;8.34;66.29;101941.13;1742434;80;21185;-70
2021/10/04 17:57:54;;;;;;;16.40;12.15;;;;;;;8.35;66.40;101938.75;1725250;80;21586;-71
2021/10/04 18:00:21;;;;;;;16.62;12.30;;;;;;;8.34;66.65;101932.61;1740497;80;21602;-69
2021/10/04 18:02:48;;;;;;;16.35;11.20;;;;;;;8.37;66.93;101935.37;1748096;80;21107;-70
2021/10/04 18:05:15;;;;;;;17.15;12.60;;;;;;;8.37;66.99;101941.52;1750908;80;21768;-69
2021/10/04 18:07:43;;;;;;;18.80;12.25;;;;;;;8.37;67.10;101948.17;1731109;82;21109;-69
2021/10/04 18:10:11;;;;;;;16.37;12.03;;;;;;;8.39;67.06;101940.84;1735221;82;21522;-69
2021/10/04 18:12:37;;;;;;;16.07;10.75;;;;;;;8.40;66.98;101947.80;1732136;80;21244;-70
2021/10/04 18:15:06;;;;;;;15.48;11.33;;;;;;;8.45;66.94;101944.49;1753391;80;21022;-70
2021/10/04 18:17:33;;;;;;;13.20;10.30;;;;;;;8.49;66.91;101948.40;1738605;81;21203;-71
2021/10/04 18:20:03;;;;;;;13.93;10.75;;;;;;;8.54;66.91;101954.42;1736279;81;21622;-71
2021/10/04 18:22:31;;;;;;;15.95;10.68;;;;;;;8.56;66.75;101957.19;1747971;80;21568;-70
2021/10/04 18:25:00;;;;;;;13.38;10.78;;;;;;;8.59;66.56;101955.44;1745514;80;21198;-70
2021/10/04 18:27:27;;;;;;;15.78;11.55;;;;;;;8.60;66.37;101954.92;1732135;80;21132;-70
2021/10/04 18:29:54;;;;;;;14.87;10.68;;;;;;;8.65;66.36;101961.75;1743417;80;21401;-70
2021/10/04 18:32:22;;;;;;;14.80;10.20;;;;;;;8.64;66.24;101964.12;1737806;80;21042;-70
2021/10/04 18:34:49;;;;;;;13.88;10.63;;;;;;;8.62;66.10;101956.35;1737112;80;21516;-70
2021/10/04 18:37:19;;;;;;;14.20;11.48;;;;;;;8.63;66.11;101960.64;1722652;82;21215;-70
2021/10/04 18:39:46;;;;;;;16.90;11.97;;;;;;;8.62;66.07;101968.34;1736233;81;21084;-70
2021/10/04 18:42:12;;;;;;;17.62;13.55;;;;;;;8.61;65.96;101962.69;1728664;80;21300;-71
2021/10/04 18:44:39;;;;;;;18.23;12.85;;;;;;;8.61;65.99;101964.53;1738731;80;21038;-71
2021/10/04 18:47:05;;;;;;;16.05;12.37;;;;;;;8.59;66.21;101963.42;1739033;81;21118;-70
2021/10/04 18:49:34;;;;;;;16.30;11.90;;;;;;;8.57;66.30;101963.32;1720706;81;21081;-70
2021/10/04 18:52:00;;;;;;;16.23;12.88;;;;;;;8.53;66.38;101962.11;1738206;81;21522;-70
2021/10/04 18:54:26;;;;;;;18.75;12.35;;;;;;;8.49;66.42;101964.86;1748619;80;21834;-70
2021/10/04 18:56:54;;;;;;;15.83;12.47;;;;;;;8.46;66.40;101962.13;1728034;80;22155;-70
2021/10/04 18:59:21;;;;;;;16.45;11.70;;;;;;;8.45;66.52;101963.13;1734319;80;21075;-71
2021/10/04 19:01:48;;;;;;;17.35;12.70;;;;;;;8.42;66.51;101960.88;1730229;80;21580;-71
2021/10/04 19:04:16;;;;;;;15.58;11.73;;;;;;;8.41;66.53;101962.73;1707807;80;21128;-72
2021/10/04 19:06:43;;;;;;;15.15;11.90;;;;;;;8.37;66.60;101963.34;1735550;80;21897;-72
2021/10/04 19:09:10;;;;;;;13.93;10.95;;;;;;;8.33;66.75;101968.78;1734898;80;21186;-72
2021/10/04 19:11:37;;;;;;;15.68;12.60;;;;;;;8.29;66.82;101974.19;1738277;81;21040;-74
2021/10/04 19:14:04;;;;;;;15.25;11.57;;;;;;;8.26;66.89;101974.59;1734066;80;21096;-72
2021/10/04 19:16:31;;;;;;;15.93;11.60;;;;;;;8.23;66.97;101978.00;1703370;81;21079;-72
2021/10/04 19:18:58;;;;;;;18.27;13.53;;;;;;;8.18;66.97;101981.77;1731603;80;21791;-72
2021/10/04 19:21:25;;;;;;;16.67;12.07;;;;;;;8.15;67.04;101979.52;1734332;80;21498;-71
2021/10/04 19:23:53;;;;;;;18.27;12.95;;;;;;;8.12;67.09;101983.92;1732856;80;21125;-74
2021/10/04 19:26:20;;;;;;;18.02;12.85;;;;;;;8.09;67.11;101984.84;1733333;80;21107;-73
2021/10/04 19:28:47;;;;;;;18.42;13.58;;;;;;;8.07;67.10;101992.23;1735238;80;21081;-74
2021/10/04 19:31:16;;;;;;;19.30;12.90;;;;;;;8.03;67.16;101991.83;1731505;81;21006;-72
2021/10/04 19:33:43;;;;;;;18.23;13.48;;;;;;;8.00;67.28;101989.58;1731928;80;21123;-74
2021/10/04 19:36:10;;;;;;;16.77;12.05;;;;;;;7.95;67.41;101994.16;1731050;80;21062;-73
2021/10/04 19:38:39;;;;;;;18.37;13.25;;;;;;;7.90;67.48;101994.48;1734747;80;21156;-74
2021/10/04 19:41:06;;;;;;;17.65;12.82;;;;;;;7.86;67.61;102008.67;1734223;80;21052;-73
2021/10/04 19:43:33;;;;;;;19.57;13.22;;;;;;;7.83;67.64;102006.94;1733386;81;21189;-73
2021/10/04 19:46:03;;;;;;;17.02;13.30;;;;;;;7.80;67.81;102007.34;1732971;80;21088;-75
2021/10/04 19:48:28;;;;;;;16.23;13.32;;;;;;;7.75;68.09;102003.97;1734505;80;21101;-73
2021/10/04 19:50:56;;;;;;;20.27;14.13;;;;;;;7.70;68.27;102011.23;1708438;82;21080;-73
2021/10/04 19:53:28;;;;;;;17.15;12.70;;;;;;;7.68;68.28;102013.27;1728050;81;21015;-74
2021/10/04 19:55:50;;;;;;;16.75;12.68;;;;;;;7.65;68.33;102019.50;1721302;81;22401;-72
2021/10/04 19:58:17;;;;;;;17.92;13.28;;;;;;;7.62;68.45;102022.56;1721652;81;20998;-76
2021/10/04 20:00:44;;;;;;;14.38;12.15;;;;;;;7.58;68.56;102015.50;1747962;80;21042;-73
2021/10/04 20:03:11;;;;;;;15.63;12.37;;;;;;;7.55;68.70;102019.89;1629495;80;10000200;-74
2021/10/04 20:05:37;;;;;;;16.97;12.43;;;;;;;7.51;68.87;102023.97;1750996;80;21529;-74
2021/10/04 20:08:06;;;;;;;16.70;12.90;;;;;;;7.47;69.05;102024.08;1754604;80;29040;-76
2021/10/04 20:10:33;;;;;;;17.07;12.05;;;;;;;7.45;69.14;102031.41;1749247;80;21060;-73
2021/10/04 20:13:02;;;;;;;18.45;13.75;;;;;;;7.42;69.23;102030.48;1750980;80;21061;-73
2021/10/04 20:15:30;;;;;;;20.17;13.53;;;;;;;7.39;69.36;102034.87;1750272;80;20960;-75
2021/10/04 20:17:56;;;;;;;19.70;13.10;;;;;;;7.37;69.48;102035.56;1739525;81;21163;-74
2021/10/04 20:20:23;;;;;;;17.42;13.53;;;;;;;7.34;69.50;102036.80;1729214;80;21033;-75
2021/10/04 20:22:52;;;;;;;17.65;12.40;;;;;;;7.31;69.54;102042.52;1733830;80;21029;-73
2021/10/04 20:25:22;;;;;;;17.45;13.43;;;;;;;7.28;69.62;102034.42;1730815;81;21121;-75
2021/10/04 20:27:51;;;;;;;18.85;13.83;;;;;;;7.20;69.87;102038.56;1732804;80;22156;-75
2021/10/04 20:30:17;;;;;;;17.52;12.82;;;;;;;7.15;70.08;102043.67;1729753;81;22097;-75
2021/10/04 20:32:45;;;;;;;17.75;13.83;;;;;;;7.10;70.28;102044.76;1730508;81;21165;-76
2021/10/04 20:35:12;;;;;;;18.02;13.28;;;;;;;7.07;70.47;102046.48;1726422;80;21076;-74
2021/10/04 20:37:39;;;;;;;16.95;12.45;;;;;;;7.03;70.59;102046.56;1734572;80;21622;-75
2021/10/04 20:40:07;;;;;;;16.48;12.60;;;;;;;7.00;70.67;102050.43;1728289;81;21057;-73
2021/10/04 20:42:35;;;;;;;19.02;13.43;;;;;;;6.98;70.85;102049.83;1730925;81;21819;-74
2021/10/04 20:45:01;;;;;;;16.57;12.15;;;;;;;6.95;71.04;102051.55;1728752;80;21396;-73
2021/10/04 20:47:28;;;;;;;18.12;13.75;;;;;;;6.94;71.16;102045.92;1730851;81;21172;-74
2021/10/04 20:49:55;;;;;;;19.95;13.78;;;;;;;6.93;71.36;102042.94;1732122;80;21578;-74
2021/10/04 20:52:21;;;;;;;16.95;12.15;;;;;;;6.91;71.58;102046.31;1731140;81;21081;-73
2021/10/04 20:54:47;;;;;;;16.12;11.65;;;;;;;6.88;71.87;102044.53;1752992;80;22357;-76
2021/10/04 20:57:14;;;;;;;15.70;12.68;;;;;;;6.85;72.07;102044.95;1749778;80;21598;-71
2021/10/04 20:59:41;;;;;;;17.17;12.88;;;;;;;6.83;72.21;102049.63;1753513;80;21137;-72
2021/10/04 21:02:08;;;;;;;17.98;13.03;;;;;;;6.82;72.39;102048.81;1722242;81;21093;-71
2021/10/04 21:04:36;;;;;;;19.00;12.75;;;;;;;6.82;72.47;102046.16;1730841;81;21090;-72
2021/10/04 21:07:09;;;;;;;16.00;12.63;;;;;;;6.79;72.58;102040.72;1738368;81;21134;-72
2021/10/04 21:09:33;;;;;;;17.73;12.23;;;;;;;6.79;72.62;102042.56;1620792;80;9999589;-70
2021/10/04 21:12:00;;;;;;;15.53;11.75;;;;;;;6.77;72.76;102044.06;1743327;80;21022;-72
2021/10/04 21:14:26;;;;;;;16.65;13.20;;;;;;;6.76;72.79;102041.11;1732421;81;21046;-71
2021/10/04 21:16:54;;;;;;;16.52;13.15;;;;;;;6.74;72.86;102039.66;1727478;81;21112;-71
2021/10/04 21:19:21;;;;;;;19.35;12.60;;;;;;;6.70;72.99;102036.57;1731775;81;21053;-71
2021/10/04 21:21:48;;;;;;;18.67;13.53;;;;;;;6.69;73.09;102035.45;1734097;80;21062;-72
2021/10/04 21:24:15;;;;;;;18.50;13.60;;;;;;;6.66;73.16;102039.83;1734489;80;21116;-72
2021/10/04 21:26:42;;;;;;;17.90;13.13;;;;;;;6.63;73.31;102040.20;1727669;82;21040;-71
2021/10/04 21:29:08;;;;;;;16.65;12.05;;;;;;;6.62;73.41;102039.91;1732578;80;21115;-72
2021/10/04 21:31:35;;;;;;;17.67;13.03;;;;;;;6.57;73.52;102043.94;1727254;81;21060;-73
2021/10/04 21:34:01;;;;;;;14.75;12.03;;;;;;;6.53;73.67;102037.37;1732315;80;21433;-74
2021/10/04 21:36:28;;;;;;;17.00;12.47;;;;;;;6.45;73.98;102042.85;1728097;82;21162;-73
2021/10/04 21:38:55;;;;;;;17.35;12.70;;;;;;;6.36;74.34;102039.20;1734705;80;21059;-73
2021/10/04 21:41:22;;;;;;;16.15;12.30;;;;;;;6.29;74.67;102040.48;1731094;81;21783;-74
2021/10/04 21:43:48;;;;;;;18.27;12.20;;;;;;;6.24;74.95;102041.03;1732171;80;21061;-73
2021/10/04 21:46:15;;;;;;;16.17;11.93;;;;;;;6.21;75.25;102039.27;1728271;80;21077;-71
2021/10/04 21:48:42;;;;;;;19.02;13.83;;;;;;;6.20;75.47;102044.27;1733856;80;21074;-69
2021/10/04 21:51:09;;;;;;;19.62;14.55;;;;;;;6.14;75.76;102043.70;1730402;82;21115;-69
2021/10/04 21:53:35;;;;;;;17.37;13.65;;;;;;;6.10;76.11;102048.58;1736078;80;22186;-69
2021/10/04 21:56:03;;;;;;;18.30;13.45;;;;;;;6.09;76.57;102045.62;1727735;80;21045;-69
2021/10/04 21:58:30;;;;;;;17.87;12.78;;;;;;;6.07;77.04;102039.16;1729991;80;21033;-71
2021/10/04 22:11:30;;;;;;;18.20;13.13;;;;;;;6.07;79.13;102037.02;1754912;80;21060;-71
2021/10/04 22:13:57;;;;;;;17.17;12.93;;;;;;;6.06;79.37;102044.67;1717816;82;21091;-70
2021/10/04 22:16:24;;;;;;;17.35;12.58;;;;;;;6.06;79.46;102042.02;1725699;81;21092;-69
2021/10/04 22:18:51;;;;;;;18.50;13.35;;;;;;;6.07;79.50;102039.16;1731032;81;21923;-70
2021/10/04 22:21:20;;;;;;;17.60;12.50;;;;;;;6.06;79.52;102039.36;1699778;81;21057;-70
2021/10/04 22:23:53;;;;;;;17.82;12.23;;;;;;;6.06;79.54;102038.04;1730516;81;21124;-70
2021/10/04 22:26:21;;;;;;;16.82;12.20;;;;;;;6.05;79.64;102039.03;1726268;81;21068;-70
2021/10/04 22:28:53;;;;;;;16.90;12.68;;;;;;;6.03;79.71;102049.03;1731474;81;21042;-70
2021/10/04 22:31:27;;;;;;;16.50;12.13;;;;;;;6.00;79.78;102043.59;1727690;82;21632;-70
2021/10/04 22:33:57;;;;;;;17.05;11.65;;;;;;;6.00;79.79;102048.89;1726566;81;21056;-70
2021/10/04 22:36:25;;;;;;;16.23;11.88;;;;;;;6.01;79.80;102051.85;1728281;82;21057;-69
2021/10/04 22:38:55;;;;;;;15.30;12.30;;;;;;;6.01;79.83;102052.36;1727320;81;21136;-69
2021/10/04 22:41:23;;;;;;;18.05;11.65;;;;;;;5.98;79.86;102051.41;1704670;81;21896;-70
2021/10/04 22:43:51;;;;;;;15.40;11.53;;;;;;;5.98;79.85;102052.73;1726096;81;21133;-70
2021/10/04 22:46:21;;;;;;;17.05;11.48;;;;;;;5.97;79.84;102053.25;1726637;81;21520;-71
2021/10/04 22:48:50;;;;;;;16.55;11.93;;;;;;;5.95;79.84;102050.46;1726776;82;22548;-70
2021/10/04 22:51:24;;;;;;;16.37;12.25;;;;;;;5.91;79.89;102060.59;1718927;81;21064;-70
2021/10/04 22:53:55;;;;;;;17.35;12.70;;;;;;;5.88;79.95;102057.81;1681662;82;21163;-70
2021/10/04 22:56:31;;;;;;;18.40;12.40;;;;;;;5.87;80.00;102061.99;1701132;82;21353;-70
2021/10/04 22:59:05;;;;;;;17.90;13.22;;;;;;;5.85;80.04;102049.42;1738566;81;21255;-69
2021/10/04 23:01:34;;;;;;;16.57;12.25;;;;;;;5.83;80.07;102050.95;1730914;81;21574;-68
2021/10/04 23:04:04;;;;;;;16.42;12.13;;;;;;;5.81;80.09;102056.93;1731916;82;21102;-69
2021/10/04 23:06:33;;;;;;;16.73;12.15;;;;;;;5.78;80.13;102049.35;1704399;82;21587;-69
2021/10/04 23:09:04;;;;;;;19.42;13.05;;;;;;;5.76;80.13;102048.73;1731698;81;21159;-69
2021/10/04 23:11:33;;;;;;;15.10;11.75;;;;;;;5.73;80.16;102050.44;1748205;81;21050;-70
2021/10/04 23:14:01;;;;;;;17.62;13.00;;;;;;;5.70;80.27;102055.30;1751533;81;21049;-70
2021/10/04 23:16:30;;;;;;;14.98;11.78;;;;;;;5.68;80.34;102052.81;1740948;81;21584;-69
2021/10/04 23:19:02;;;;;;;15.28;11.90;;;;;;;5.65;80.33;102046.56;1752758;81;21774;-70
2021/10/04 23:21:31;;;;;;;19.50;12.47;;;;;;;5.63;80.33;102051.25;1746013;80;21156;-69
2021/10/04 23:23:59;;;;;;;17.05;12.50;;;;;;;5.59;80.46;102048.63;1750128;80;21082;-69
2021/10/04 23:26:29;;;;;;;17.50;12.68;;;;;;;5.56;80.58;102045.88;1744941;80;21033;-69
2021/10/04 23:29:01;;;;;;;18.32;12.60;;;;;;;5.53;80.73;102044.11;1746915;81;21033;-69
2021/10/04 23:31:29;;;;;;;17.37;12.37;;;;;;;5.49;80.88;102049.44;1747825;80;21734;-68
2021/10/04 23:33:57;;;;;;;18.15;12.90;;;;;;;5.46;80.97;102055.11;1751899;81;21098;-69
2021/10/04 23:36:27;;;;;;;15.85;11.20;;;;;;;5.45;81.02;102056.94;1752630;81;21051;-69
2021/10/04 23:38:57;;;;;;;18.73;12.93;;;;;;;5.40;81.19;102056.19;1747514;81;21508;-70
2021/10/04 23:41:26;;;;;;;17.80;12.30;;;;;;;5.39;81.33;102059.00;1721902;81;21095;-69
2021/10/04 23:43:54;;;;;;;16.25;11.70;;;;;;;5.35;81.44;102053.26;1744959;81;21119;-69
2021/10/04 23:46:26;;;;;;;16.25;12.47;;;;;;;5.32;81.60;102050.97;1718576;81;22215;-69
2021/10/04 23:48:52;;;;;;;18.85;13.68;;;;;;;5.29;81.75;102054.50;1725583;81;21595;-71
2021/10/04 23:51:19;;;;;;;15.55;12.13;;;;;;;5.26;81.87;102055.69;1722544;81;21041;-71
2021/10/04 23:53:45;;;;;;;17.80;12.75;;;;;;;5.26;81.99;102065.47;1718905;81;21551;-71
2021/10/04 23:56:12;;;;;;;18.40;13.08;;;;;;;5.22;82.10;102054.92;1722260;82;21215;-71
2021/10/04 23:58:38;;;;;;;17.82;12.85;;;;;;;5.20;82.19;102056.92;1727149;81;21102;-71
